createdAt,value
2018-01-15T00:01:34.585Z,69.60
2018-01-15T00:04:02.817Z,69.70
2018-01-15T00:06:30.277Z,69.60
2018-01-15T00:08:58.537Z,69.70
2018-01-15T00:11:25.992Z,69.70
2018-01-15T00:13:53.537Z,69.70
2018-01-15T00:16:21.080Z,69.70
2018-01-15T00:18:48.550Z,70.50
2018-01-15T00:21:16.000Z,69.70
2018-01-15T00:23:43.477Z,69.80
2018-01-15T00:26:10.945Z,69.90
2018-01-15T00:28:38.686Z,70.80
2018-01-15T00:31:06.157Z,69.90
2018-01-15T00:33:33.621Z,70.00
2018-01-15T00:36:01.106Z,70.10
2018-01-15T00:38:28.605Z,70.00
2018-01-15T00:40:56.104Z,70.00
2018-01-15T00:43:23.560Z,70.00
2018-01-15T00:45:51.026Z,70.20
2018-01-15T00:48:18.508Z,70.20
2018-01-15T00:50:46.013Z,70.30
2018-01-15T00:53:13.542Z,70.30
2018-01-15T00:55:40.996Z,70.30
2018-01-15T00:58:08.476Z,70.30
2018-01-15T01:00:35.942Z,70.20
2018-01-15T01:03:03.436Z,70.10
2018-01-15T01:05:30.900Z,70.00
2018-01-15T01:07:58.353Z,70.00
2018-01-15T01:10:25.837Z,69.80
2018-01-15T01:12:53.284Z,69.80
2018-01-15T01:15:20.760Z,69.90
2018-01-15T01:17:48.291Z,69.90
2018-01-15T01:20:15.790Z,69.70
2018-01-15T01:22:44.017Z,69.70
2018-01-15T01:25:11.530Z,69.70
2018-01-15T01:27:40.528Z,69.50
2018-01-15T01:30:08.776Z,69.40
2018-01-15T01:32:36.259Z,69.30
2018-01-15T01:35:04.532Z,69.30
2018-01-15T01:37:32.057Z,69.10
2018-01-15T01:39:59.553Z,69.20
2018-01-15T01:42:27.009Z,69.20
2018-01-15T01:44:54.506Z,69.40
2018-01-15T01:47:21.957Z,69.30
2018-01-15T01:49:49.537Z,69.20
2018-01-15T01:52:17.010Z,70.10
2018-01-15T01:54:44.489Z,69.50
2018-01-15T01:57:11.999Z,69.60
2018-01-15T01:59:39.659Z,69.70
2018-01-15T02:02:07.108Z,69.70
2018-01-15T02:04:34.593Z,69.60
2018-01-15T02:07:02.076Z,69.90
2018-01-15T02:09:29.562Z,69.40
2018-01-15T02:11:57.777Z,69.30
2018-01-15T02:14:25.248Z,69.30
2018-01-15T02:16:52.724Z,69.20
2018-01-15T02:19:20.210Z,69.20
2018-01-15T02:21:48.447Z,69.20
2018-01-15T02:24:15.924Z,69.20
2018-01-15T02:26:43.409Z,69.20
2018-01-15T02:29:11.681Z,69.40
2018-01-15T02:31:39.896Z,69.60
2018-01-15T02:34:07.397Z,69.70
2018-01-15T02:36:35.511Z,69.70
2018-01-15T02:39:02.967Z,69.70
2018-01-15T02:41:32.130Z,69.90
2018-01-15T02:43:59.587Z,69.90
2018-01-15T02:46:27.076Z,69.90
2018-01-15T02:48:55.005Z,70.00
2018-01-15T02:51:22.500Z,70.10
2018-01-15T02:53:50.729Z,70.20
2018-01-15T02:56:18.210Z,70.10
2018-01-15T02:58:45.688Z,70.30
2018-01-15T03:01:13.934Z,70.10
2018-01-15T03:03:41.413Z,70.20
2018-01-15T03:06:09.652Z,70.10
2018-01-15T03:08:37.110Z,70.00
2018-01-15T03:11:04.592Z,70.10
2018-01-15T03:13:32.045Z,70.00
2018-01-15T03:15:59.525Z,70.00
2018-01-15T03:18:27.789Z,70.10
2018-01-15T03:20:55.276Z,70.00
2018-01-15T03:23:22.750Z,70.00
2018-01-15T03:25:50.238Z,70.10
2018-01-15T03:28:17.696Z,70.20
2018-01-15T03:30:45.186Z,70.20
2018-01-15T03:33:12.666Z,70.10
2018-01-15T03:35:40.162Z,70.20
2018-01-15T03:38:07.617Z,70.30
2018-01-15T03:40:35.076Z,70.40
2018-01-15T03:43:02.569Z,70.50
2018-01-15T03:45:30.017Z,70.50
2018-01-15T03:47:57.512Z,70.60
2018-01-15T03:50:24.978Z,70.50
2018-01-15T03:52:52.480Z,70.50
2018-01-15T03:55:19.927Z,70.50
2018-01-15T03:57:47.393Z,70.30
2018-01-15T04:00:14.877Z,70.20
2018-01-15T04:02:42.356Z,70.10
2018-01-15T04:05:09.818Z,70.10
2018-01-15T04:07:38.061Z,70.20
2018-01-15T04:10:05.885Z,70.20
2018-01-15T04:12:33.339Z,70.40
2018-01-15T04:15:00.788Z,70.30
2018-01-15T04:17:28.286Z,70.30
2018-01-15T04:19:55.741Z,70.40
2018-01-15T04:22:23.196Z,70.40
2018-01-15T04:24:50.681Z,70.40
2018-01-15T04:27:18.166Z,70.40
2018-01-15T04:29:45.617Z,70.30
2018-01-15T04:32:13.110Z,70.50
2018-01-15T04:34:40.552Z,70.40
2018-01-15T04:37:08.003Z,70.40
2018-01-15T04:39:35.517Z,70.30
2018-01-15T04:42:02.968Z,70.30
2018-01-15T04:44:30.441Z,70.30
2018-01-15T04:46:57.921Z,70.30
2018-01-15T04:49:26.178Z,70.30
2018-01-15T04:51:53.648Z,70.20
2018-01-15T04:54:21.129Z,70.20
2018-01-15T04:56:48.613Z,70.10
2018-01-15T04:59:16.072Z,70.20
2018-01-15T05:01:43.557Z,70.20
2018-01-15T05:04:11.078Z,70.10
2018-01-15T05:06:38.540Z,70.10
2018-01-15T05:09:06.008Z,70.20
2018-01-15T05:11:33.485Z,70.20
2018-01-15T05:14:00.954Z,70.10
2018-01-15T05:16:28.432Z,70.20
2018-01-15T05:18:55.900Z,70.20
2018-01-15T05:21:23.362Z,70.20
2018-01-15T05:23:50.836Z,70.20
2018-01-15T05:26:18.288Z,70.10
2018-01-15T05:28:45.774Z,70.20
2018-01-15T05:31:13.720Z,70.20
2018-01-15T05:33:41.216Z,70.20
2018-01-15T05:36:08.698Z,70.20
2018-01-15T05:38:36.184Z,70.20
2018-01-15T05:41:04.427Z,70.30
2018-01-15T05:43:31.890Z,70.30
2018-01-15T05:45:59.349Z,70.20
2018-01-15T05:48:26.825Z,70.20
2018-01-15T05:50:54.289Z,70.40
2018-01-15T05:53:21.780Z,70.50
2018-01-15T05:55:49.244Z,70.50
2018-01-15T05:58:16.722Z,70.50
2018-01-15T06:00:44.197Z,70.70
2018-01-15T06:03:11.692Z,70.70
2018-01-15T06:05:39.154Z,70.60
2018-01-15T06:08:06.797Z,70.60
2018-01-15T06:10:35.132Z,70.80
2018-01-15T06:13:03.187Z,70.80
2018-01-15T06:15:30.635Z,70.80
2018-01-15T06:17:58.142Z,71.00
2018-01-15T06:20:25.617Z,71.10
2018-01-15T06:22:53.104Z,71.10
2018-01-15T06:25:23.074Z,71.30
2018-01-15T06:27:51.561Z,71.50
2018-01-15T06:30:19.128Z,71.10
2018-01-15T06:32:46.613Z,71.60
2018-01-15T06:35:14.189Z,71.70
2018-01-15T06:37:41.643Z,71.80
2018-01-15T06:40:09.106Z,71.90
2018-01-15T06:42:36.601Z,71.90
2018-01-15T06:45:04.091Z,71.90
2018-01-15T06:47:31.666Z,72.10
2018-01-15T06:49:59.891Z,72.20
2018-01-15T06:52:27.455Z,72.20
2018-01-15T06:54:54.950Z,72.20
2018-01-15T06:57:23.205Z,72.10
2018-01-15T06:59:51.505Z,72.10
2018-01-15T07:02:18.964Z,72.20
2018-01-15T07:04:46.436Z,72.30
2018-01-15T07:07:13.933Z,72.30
2018-01-15T07:09:41.462Z,72.30
2018-01-15T07:12:08.976Z,72.30
2018-01-15T07:14:36.435Z,72.40
2018-01-15T07:17:03.902Z,72.40
2018-01-15T07:19:31.389Z,72.40
2018-01-15T07:21:58.868Z,72.40
2018-01-15T07:24:26.349Z,72.50
2018-01-15T07:26:53.842Z,72.50
2018-01-15T07:29:22.121Z,72.50
2018-01-15T07:31:50.358Z,72.60
2018-01-15T07:34:17.832Z,72.50
2018-01-15T07:36:45.285Z,72.60
2018-01-15T07:39:12.757Z,72.60
2018-01-15T07:41:40.213Z,72.60
2018-01-15T07:44:07.695Z,72.70
2018-01-15T07:46:35.909Z,72.80
2018-01-15T07:49:03.409Z,73.50
2018-01-15T07:51:30.865Z,72.80
2018-01-15T07:53:58.326Z,72.80
2018-01-15T07:56:25.829Z,72.80
2018-01-15T07:58:53.311Z,72.80
2018-01-15T08:01:20.785Z,72.80
2018-01-15T08:03:48.269Z,72.90
2018-01-15T08:06:16.518Z,73.00
2018-01-15T08:08:44.001Z,73.00
2018-01-15T08:11:11.461Z,73.00
2018-01-15T08:13:39.688Z,73.30
2018-01-15T08:16:07.173Z,73.10
2018-01-15T08:18:34.645Z,73.10
2018-01-15T08:21:02.118Z,73.10
2018-01-15T08:23:29.591Z,73.10
2018-01-15T08:25:57.069Z,73.20
2018-01-15T08:28:24.616Z,73.20
2018-01-15T08:30:52.194Z,73.20
2018-01-15T08:33:19.682Z,73.20
2018-01-15T08:35:47.133Z,73.20
2018-01-15T08:38:15.348Z,73.20
2018-01-15T08:40:42.825Z,73.20
2018-01-15T08:43:10.280Z,73.30
2018-01-15T08:45:37.759Z,73.20
2018-01-15T08:48:05.226Z,73.20
2018-01-15T08:50:32.709Z,73.20
2018-01-15T08:53:00.160Z,73.10
2018-01-15T08:55:27.656Z,73.30
2018-01-15T08:57:55.885Z,73.40
2018-01-15T09:00:23.381Z,73.40
2018-01-15T09:02:51.678Z,73.40
2018-01-15T09:05:19.160Z,73.30
2018-01-15T09:07:46.653Z,73.30
2018-01-15T09:10:14.172Z,73.30
2018-01-15T09:12:41.646Z,73.40
2018-01-15T09:15:09.132Z,73.20
2018-01-15T09:17:36.774Z,73.20
2018-01-15T09:20:04.272Z,73.20
2018-01-15T09:22:32.549Z,73.10
2018-01-15T09:25:00.019Z,73.10
2018-01-15T09:27:27.529Z,73.10
2018-01-15T09:29:55.013Z,73.90
2018-01-15T09:32:22.504Z,73.10
2018-01-15T09:34:49.986Z,72.90
2018-01-15T09:37:17.456Z,72.90
2018-01-15T09:39:44.929Z,72.80
2018-01-15T09:42:12.469Z,72.80
2018-01-15T09:44:40.679Z,72.50
2018-01-15T09:47:08.924Z,72.50
2018-01-15T09:49:36.446Z,72.50
2018-01-15T09:52:04.701Z,72.40
2018-01-15T09:54:32.241Z,72.40
2018-01-15T09:56:59.725Z,72.30
2018-01-15T09:59:27.207Z,72.20
2018-01-15T10:01:54.705Z,72.20
2018-01-15T10:04:22.169Z,72.30
2018-01-15T10:06:49.682Z,72.20
2018-01-15T10:09:17.145Z,72.10
2018-01-15T10:11:44.646Z,72.10
2018-01-15T10:14:12.116Z,72.10
2018-01-15T10:16:39.612Z,72.80
2018-01-15T10:19:07.166Z,71.90
2018-01-15T10:21:35.382Z,71.80
2018-01-15T10:24:02.865Z,72.50
2018-01-15T10:26:30.329Z,71.70
2018-01-15T10:28:57.802Z,71.70
2018-01-15T10:31:25.276Z,71.60
2018-01-15T10:33:53.528Z,71.30
2018-01-15T10:36:20.985Z,71.30
2018-01-15T10:38:48.469Z,71.30
2018-01-15T10:41:16.689Z,71.30
2018-01-15T10:43:44.184Z,71.30
2018-01-15T10:46:11.673Z,71.10
2018-01-15T10:48:39.928Z,71.00
2018-01-15T10:51:08.188Z,71.00
2018-01-15T10:53:35.657Z,70.90
2018-01-15T10:56:03.121Z,70.80
2018-01-15T10:58:30.592Z,70.80
2018-01-15T11:00:58.810Z,70.80
2018-01-15T11:03:26.252Z,70.80
2018-01-15T11:05:53.741Z,70.70
2018-01-15T11:08:21.238Z,70.60
2018-01-15T11:10:49.456Z,70.70
2018-01-15T11:13:16.916Z,70.80
2018-01-15T11:15:44.389Z,70.60
2018-01-15T11:18:11.871Z,70.60
2018-01-15T11:20:39.376Z,70.70
2018-01-15T11:23:06.850Z,71.00
2018-01-15T11:25:34.324Z,70.90
2018-01-15T11:28:01.802Z,70.90
2018-01-15T11:30:29.261Z,70.70
2018-01-15T11:32:56.731Z,70.80
2018-01-15T11:35:24.217Z,70.90
2018-01-15T11:37:51.703Z,70.90
2018-01-15T11:40:19.921Z,70.90
2018-01-15T11:42:47.396Z,70.90
2018-01-15T11:45:14.857Z,71.00
2018-01-15T11:47:42.354Z,71.20
2018-01-15T11:50:09.796Z,71.30
2018-01-15T11:52:37.273Z,71.40
2018-01-15T11:55:04.714Z,71.50
2018-01-15T11:57:32.188Z,71.50
2018-01-15T11:59:59.768Z,71.60
2018-01-15T12:02:27.229Z,71.60
2018-01-15T12:04:54.713Z,71.80
2018-01-15T12:07:22.944Z,71.50
2018-01-15T12:09:50.438Z,71.50
2018-01-15T12:12:17.945Z,71.50
2018-01-15T12:14:45.396Z,71.50
2018-01-15T12:17:12.966Z,71.40
2018-01-15T12:19:40.438Z,71.40
2018-01-15T12:22:07.922Z,71.30
2018-01-15T12:24:35.369Z,71.30
2018-01-15T12:27:02.833Z,71.20
2018-01-15T12:29:30.285Z,71.20
2018-01-15T12:31:57.759Z,71.20
2018-01-15T12:34:25.216Z,71.20
2018-01-15T12:36:53.534Z,71.10
2018-01-15T12:39:21.033Z,71.20
2018-01-15T12:41:48.509Z,71.20
2018-01-15T12:44:15.952Z,71.10
2018-01-15T12:46:43.442Z,71.10
2018-01-15T12:49:11.649Z,71.30
2018-01-15T12:51:39.107Z,71.20
2018-01-15T12:54:06.580Z,71.40
2018-01-15T12:56:34.036Z,71.70
2018-01-15T12:59:01.652Z,72.00
2018-01-15T13:01:29.130Z,72.30
2018-01-15T13:03:56.626Z,72.30
2018-01-15T13:09:23.516Z,72.80
2018-01-15T13:11:51.756Z,73.00
2018-01-15T13:14:19.216Z,73.00
2018-01-15T13:16:46.793Z,73.10
2018-01-15T13:19:14.296Z,73.30
2018-01-15T13:21:41.740Z,73.50
2018-01-15T13:24:09.756Z,73.50
2018-01-15T13:26:37.225Z,73.50
2018-01-15T13:29:05.649Z,73.40
2018-01-15T13:31:33.970Z,73.20
2018-01-15T13:34:01.421Z,73.10
2018-01-15T13:36:28.910Z,73.10
2018-01-15T13:38:56.364Z,73.00
2018-01-15T13:41:23.816Z,73.00
2018-01-15T13:43:51.296Z,73.00
2018-01-15T13:46:18.746Z,72.90
2018-01-15T13:48:46.221Z,72.80
2018-01-15T13:51:13.707Z,72.80
2018-01-15T13:53:41.162Z,72.80
2018-01-15T13:56:08.628Z,73.00
2018-01-15T13:58:36.188Z,72.70
2018-01-15T14:01:04.397Z,72.60
2018-01-15T14:03:31.870Z,72.70
2018-01-15T14:06:00.224Z,72.60
2018-01-15T14:08:27.705Z,72.50
2018-01-15T14:10:55.153Z,72.50
2018-01-15T14:13:22.605Z,72.60
2018-01-15T14:15:50.078Z,72.60
2018-01-15T14:18:17.542Z,72.50
2018-01-15T14:20:45.049Z,72.70
2018-01-15T14:23:12.505Z,72.80
2018-01-15T14:25:40.745Z,72.90
2018-01-15T14:28:08.208Z,72.90
2018-01-15T14:30:35.671Z,73.10
2018-01-15T14:33:03.133Z,73.20
2018-01-15T14:35:30.619Z,73.30
2018-01-15T14:37:58.092Z,73.50
2018-01-15T14:40:25.574Z,73.60
2018-01-15T14:42:53.017Z,73.70
2018-01-15T14:45:20.493Z,73.90
2018-01-15T14:47:47.970Z,74.10
2018-01-15T14:50:15.453Z,74.00
2018-01-15T14:52:43.793Z,74.40
2018-01-15T14:55:11.369Z,74.40
2018-01-15T14:57:38.923Z,74.60
2018-01-15T15:00:06.373Z,74.80
2018-01-15T15:02:33.852Z,74.90
2018-01-15T15:05:01.522Z,75.20
2018-01-15T15:07:29.741Z,75.50
2018-01-15T15:09:57.363Z,75.30
2018-01-15T15:12:24.898Z,75.40
2018-01-15T15:14:52.417Z,75.30
2018-01-15T15:17:19.982Z,75.50
2018-01-15T15:19:47.535Z,75.60
2018-01-15T15:22:14.986Z,75.50
2018-01-15T15:24:42.429Z,75.50
2018-01-15T15:27:10.704Z,75.80
2018-01-15T15:29:38.129Z,75.70
2018-01-15T15:32:05.607Z,75.70
2018-01-15T15:34:33.052Z,75.70
2018-01-15T15:37:00.521Z,75.80
2018-01-15T15:39:27.994Z,75.80
2018-01-15T15:41:56.368Z,75.80
2018-01-15T15:44:23.816Z,75.70
2018-01-15T15:46:52.024Z,76.50
2018-01-15T15:49:19.501Z,75.70
2018-01-15T15:51:46.941Z,75.70
2018-01-15T15:54:14.419Z,75.60
2018-01-15T15:56:41.888Z,75.40
2018-01-15T15:59:09.364Z,75.30
2018-01-15T16:01:36.858Z,75.50
2018-01-15T16:04:05.104Z,75.40
2018-01-15T16:06:32.649Z,75.20
2018-01-15T16:09:00.114Z,75.30
2018-01-15T16:11:27.577Z,75.30
2018-01-15T16:13:55.036Z,75.20
2018-01-15T16:16:22.513Z,75.20
2018-01-15T16:18:50.802Z,75.10
2018-01-15T16:21:19.032Z,76.00
2018-01-15T16:23:46.555Z,75.20
2018-01-15T16:26:14.013Z,75.10
2018-01-15T16:28:41.491Z,75.30
2018-01-15T16:31:08.953Z,75.30
2018-01-15T16:33:36.436Z,75.40
2018-01-15T16:36:03.877Z,75.50
2018-01-15T16:38:31.347Z,75.50
2018-01-15T16:40:58.986Z,75.50
2018-01-15T16:43:26.457Z,75.50
2018-01-15T16:45:53.954Z,75.50
2018-01-15T16:48:21.436Z,75.50
2018-01-15T16:50:48.906Z,75.50
2018-01-15T16:53:16.362Z,75.60
2018-01-15T16:55:43.875Z,75.70
2018-01-15T16:58:11.672Z,75.80
2018-01-15T17:00:40.005Z,75.90
2018-01-15T17:03:07.389Z,75.90
2018-01-15T17:05:35.596Z,76.20
2018-01-15T17:08:03.049Z,76.10
2018-01-15T17:10:30.534Z,76.00
2018-01-15T17:12:57.996Z,77.10
2018-01-15T17:15:25.483Z,76.20
2018-01-15T17:17:52.977Z,76.20
2018-01-15T17:20:20.430Z,76.10
2018-01-15T17:22:48.631Z,76.00
2018-01-15T17:25:16.124Z,76.00
2018-01-15T17:27:44.348Z,76.00
2018-01-15T17:30:11.942Z,76.00
2018-01-15T17:32:39.404Z,75.90
2018-01-15T17:35:06.872Z,75.70
2018-01-15T17:37:34.316Z,75.70
2018-01-15T17:40:01.760Z,75.90
2018-01-15T17:42:29.938Z,75.90
2018-01-15T17:44:57.384Z,75.80
2018-01-15T17:47:24.843Z,76.00
2018-01-15T17:49:52.357Z,76.80
2018-01-15T17:52:19.992Z,76.30
2018-01-15T17:54:47.593Z,76.30
2018-01-15T17:57:15.065Z,76.30
2018-01-15T17:59:42.509Z,76.30
2018-01-15T18:02:09.957Z,76.30
2018-01-15T18:04:37.452Z,76.20
2018-01-15T18:07:04.928Z,76.40
2018-01-15T18:09:32.444Z,76.40
2018-01-15T18:12:00.662Z,76.60
2018-01-15T18:14:28.137Z,76.50
2018-01-15T18:16:55.621Z,76.70
2018-01-15T18:19:23.098Z,76.70
2018-01-15T18:21:51.316Z,76.80
2018-01-15T18:24:18.765Z,76.80
2018-01-15T18:26:46.253Z,76.90
2018-01-15T18:29:13.712Z,76.90
2018-01-15T18:31:41.168Z,77.00
2018-01-15T18:34:08.637Z,76.90
2018-01-15T18:36:36.120Z,77.80
2018-01-15T18:39:04.344Z,76.90
2018-01-15T18:41:32.786Z,76.90
2018-01-15T18:44:00.284Z,76.90
2018-01-15T18:46:27.745Z,76.90
2018-01-15T18:48:55.226Z,77.10
2018-01-15T18:51:22.679Z,77.10
2018-01-15T18:53:50.416Z,77.20
2018-01-15T18:56:18.809Z,77.30
2018-01-15T18:58:46.332Z,77.30
2018-01-15T19:01:13.781Z,77.30
2018-01-15T19:03:41.260Z,77.20
2018-01-15T19:06:08.736Z,77.20
2018-01-15T19:08:36.270Z,77.30
2018-01-15T19:11:03.721Z,77.30
2018-01-15T19:13:31.213Z,77.40
2018-01-15T19:15:58.687Z,77.40
2018-01-15T19:18:26.153Z,77.30
2018-01-15T19:20:53.616Z,77.50
2018-01-15T19:23:21.069Z,77.60
2018-01-15T19:25:48.537Z,77.50
2018-01-15T19:28:16.196Z,77.60
2018-01-15T19:30:43.675Z,77.50
2018-01-15T19:33:11.918Z,77.50
2018-01-15T19:35:43.301Z,77.40
2018-01-15T19:38:29.759Z,77.70
2018-01-15T19:40:57.654Z,77.70
2018-01-15T19:46:41.504Z,77.70
2018-01-15T19:49:29.544Z,77.80
2018-01-15T19:52:02.573Z,77.90
2018-01-15T19:54:36.583Z,78.00
2018-01-15T19:57:10.548Z,78.10
2018-01-15T19:59:43.710Z,78.10
2018-01-15T20:02:16.840Z,78.30
2018-01-15T20:04:50.090Z,78.30
2018-01-15T20:07:23.285Z,78.30
2018-01-15T20:09:56.537Z,78.40
2018-01-15T20:12:24.048Z,78.50
2018-01-15T20:14:51.512Z,78.50
2018-01-15T20:17:18.969Z,78.50
2018-01-15T20:19:47.230Z,79.60
2018-01-15T20:22:14.730Z,78.70
2018-01-15T20:24:42.326Z,78.90
2018-01-15T20:27:10.607Z,79.10
2018-01-15T20:29:38.288Z,79.10
2018-01-15T20:32:05.760Z,79.20
2018-01-15T20:34:33.241Z,79.30
2018-01-15T20:37:00.729Z,79.30
2018-01-15T20:39:28.184Z,79.30
2018-01-15T20:41:55.809Z,79.40
2018-01-15T20:44:23.322Z,79.40
2018-01-15T20:46:50.841Z,79.50
2018-01-15T20:49:18.554Z,79.50
2018-01-15T20:51:46.280Z,79.60
2018-01-15T20:54:13.986Z,79.80
2018-01-15T20:56:41.524Z,80.90
2018-01-15T20:59:10.052Z,80.00
2018-01-15T21:01:37.803Z,80.40
2018-01-15T21:04:05.244Z,80.10
2018-01-15T21:06:33.750Z,80.10
2018-01-15T21:09:01.217Z,80.10
2018-01-15T21:11:28.685Z,80.10
2018-01-15T21:13:56.177Z,80.30
2018-01-15T21:16:23.648Z,80.30
2018-01-15T21:18:52.204Z,80.40
2018-01-15T21:21:19.758Z,80.70
2018-01-15T21:23:47.493Z,80.40
2018-01-15T21:26:15.005Z,80.40
2018-01-15T21:28:42.574Z,80.40
2018-01-15T21:31:10.867Z,80.60
2018-01-15T21:33:38.356Z,81.40
2018-01-15T21:36:06.002Z,80.60
2018-01-15T21:38:33.533Z,80.70
2018-01-15T21:41:01.031Z,80.70
2018-01-15T21:43:28.653Z,80.80
2018-01-15T21:45:56.937Z,81.10
2018-01-15T21:48:25.227Z,81.00
2018-01-15T21:50:52.745Z,81.10
2018-01-15T21:53:20.398Z,81.00
2018-01-15T21:55:48.023Z,81.00
2018-01-15T21:58:15.668Z,81.00
2018-01-15T22:00:43.148Z,81.00
2018-01-15T22:03:10.589Z,80.90
2018-01-15T22:05:38.087Z,81.00
2018-01-15T22:08:05.550Z,81.10
2018-01-15T22:10:33.006Z,81.10
2018-01-15T22:13:00.581Z,81.10
2018-01-15T22:15:28.081Z,81.00
2018-01-15T22:17:56.298Z,80.90
2018-01-15T22:20:23.788Z,80.90
2018-01-15T22:22:51.263Z,80.80
2018-01-15T22:25:18.706Z,80.70
2018-01-15T22:27:46.193Z,80.70
2018-01-15T22:30:13.681Z,80.60
2018-01-15T22:32:41.137Z,80.50
2018-01-15T22:35:08.612Z,80.50
2018-01-15T22:37:36.869Z,80.40
2018-01-15T22:40:05.422Z,80.30
2018-01-15T22:42:33.637Z,80.30
2018-01-15T22:45:01.106Z,80.30
2018-01-15T22:47:28.576Z,80.20
2018-01-15T22:49:56.025Z,80.20
2018-01-15T22:52:24.273Z,80.10
2018-01-15T22:54:51.729Z,80.10
2018-01-15T22:57:19.185Z,80.10
2018-01-15T22:59:46.674Z,80.00
2018-01-15T23:02:14.134Z,80.10
2018-01-15T23:04:41.584Z,80.00
2018-01-15T23:07:09.825Z,79.80
2018-01-15T23:09:37.346Z,79.80
2018-01-15T23:12:04.833Z,79.80
2018-01-15T23:14:32.273Z,79.80
2018-01-15T23:17:00.492Z,79.80
2018-01-15T23:19:27.968Z,79.80
2018-01-15T23:21:55.419Z,79.80
2018-01-15T23:24:22.901Z,79.60
2018-01-15T23:26:50.358Z,79.50
2018-01-15T23:29:17.825Z,79.40
2018-01-15T23:31:45.283Z,79.40
2018-01-15T23:34:12.756Z,79.30
2018-01-15T23:36:40.992Z,79.00
2018-01-15T23:39:08.481Z,78.90
2018-01-15T23:41:35.953Z,78.90
2018-01-15T23:44:04.200Z,78.90
2018-01-15T23:46:31.655Z,79.40
2018-01-15T23:48:59.126Z,78.60
2018-01-15T23:51:26.609Z,78.40
2018-01-15T23:53:54.857Z,78.30
2018-01-15T23:56:22.313Z,78.30
2018-01-15T23:58:49.757Z,78.10
